createdAt,value
2018-11-14T00:02:34.448Z,102550.31
2018-11-14T00:05:40.106Z,102553.47
2018-11-14T00:08:45.581Z,102558.31
2018-11-14T00:11:51.010Z,102567.30
2018-11-14T00:14:57.441Z,102569.03
2018-11-14T00:18:02.904Z,102570.69
2018-11-14T00:21:08.400Z,102572.08
2018-11-14T00:24:14.153Z,102571.14
2018-11-14T00:27:19.570Z,102579.42
2018-11-14T00:30:26.006Z,102585.52
2018-11-14T00:33:31.451Z,102591.15
2018-11-14T00:36:36.838Z,102588.95
2018-11-14T00:39:42.316Z,102593.30
2018-11-14T00:42:48.466Z,102585.56
2018-11-14T00:45:53.935Z,102591.20
2018-11-14T00:48:59.409Z,102593.80
2018-11-14T00:52:05.502Z,102589.41
2018-11-14T00:55:13.987Z,102592.95
2018-11-14T00:58:19.353Z,102599.97
2018-11-14T01:01:24.944Z,102607.34
2018-11-14T01:04:30.838Z,102615.99
2018-11-14T01:07:36.334Z,102619.03
2018-11-14T01:10:41.745Z,102623.73
2018-11-14T01:13:47.289Z,102626.81
2018-11-14T01:16:52.715Z,102624.26
2018-11-14T01:19:58.163Z,102627.38
2018-11-14T01:23:03.712Z,102627.83
2018-11-14T01:26:09.772Z,102630.88
2018-11-14T01:29:15.138Z,102640.44
2018-11-14T01:32:20.591Z,102648.55
2018-11-14T01:35:26.172Z,102647.28
2018-11-14T01:38:31.607Z,102649.40
2018-11-14T01:41:37.158Z,102642.91
2018-11-14T01:44:42.622Z,102649.36
2018-11-14T01:47:48.049Z,102650.22
2018-11-14T01:50:53.475Z,102648.14
2018-11-14T01:53:58.966Z,102642.47
2018-11-14T01:57:04.410Z,102636.39
2018-11-14T02:00:13.044Z,102632.45
2018-11-14T02:03:18.462Z,102632.50
2018-11-14T02:06:24.174Z,102635.62
2018-11-14T02:09:29.622Z,102629.20
2018-11-14T02:12:35.411Z,102629.17
2018-11-14T02:15:40.922Z,102634.39
2018-11-14T02:18:46.305Z,102636.21
2018-11-14T02:21:51.677Z,102632.28
2018-11-14T02:24:57.218Z,102632.80
2018-11-14T02:28:02.649Z,102631.98
2018-11-14T02:31:08.398Z,102633.73
2018-11-14T02:34:13.878Z,102631.23
2018-11-14T02:37:19.482Z,102639.36
2018-11-14T02:40:24.945Z,102636.42
2018-11-14T02:43:30.458Z,102636.42
2018-11-14T02:46:35.813Z,102643.34
2018-11-14T02:49:41.228Z,102640.34
2018-11-14T02:52:46.721Z,102643.82
2018-11-14T02:56:06.210Z,102644.33
2018-11-14T02:59:11.566Z,102649.09
2018-11-14T03:02:17.095Z,102658.70
2018-11-14T03:05:22.625Z,102652.16
2018-11-14T03:08:28.110Z,102653.05
2018-11-14T03:11:33.495Z,102650.02
2018-11-14T03:14:38.924Z,102653.07
2018-11-14T03:17:44.373Z,102655.22
2018-11-14T03:20:49.819Z,102662.14
2018-11-14T03:23:55.396Z,102657.40
2018-11-14T03:27:00.826Z,102659.58
2018-11-14T03:30:08.929Z,102650.53
2018-11-14T03:33:14.631Z,102654.41
2018-11-14T03:36:20.997Z,102654.83
2018-11-14T03:39:26.673Z,102661.30
2018-11-14T03:42:32.062Z,102663.48
2018-11-14T03:45:37.526Z,102668.70
2018-11-14T03:48:43.102Z,102670.41
2018-11-14T03:51:48.554Z,102663.48
2018-11-14T03:54:54.011Z,102660.06
2018-11-14T03:57:59.438Z,102657.42
2018-11-14T04:01:06.091Z,102658.77
2018-11-14T04:04:11.625Z,102647.52
2018-11-14T04:07:17.070Z,102645.81
2018-11-14T04:10:22.545Z,102641.92
2018-11-14T04:13:28.117Z,102654.89
2018-11-14T04:16:33.613Z,102654.41
2018-11-14T04:19:38.998Z,102661.78
2018-11-14T04:22:44.670Z,102670.84
2018-11-14T04:25:50.115Z,102672.54
2018-11-14T04:28:55.619Z,102666.91
2018-11-14T04:32:01.201Z,102675.56
2018-11-14T04:35:09.418Z,102677.28
2018-11-14T04:38:14.835Z,102671.25
2018-11-14T04:41:20.260Z,102677.20
2018-11-14T04:44:25.734Z,102658.14
2018-11-14T04:47:31.304Z,102663.80
2018-11-14T04:50:36.690Z,102665.56
2018-11-14T04:53:42.118Z,102673.70
2018-11-14T04:56:47.542Z,102674.52
2018-11-14T04:59:53.350Z,102670.69
2018-11-14T05:02:59.327Z,102669.80
2018-11-14T05:06:05.405Z,102671.08
2018-11-14T05:09:12.779Z,102668.48
2018-11-14T05:12:18.214Z,102682.33
2018-11-14T05:15:24.834Z,102684.95
2018-11-14T05:18:31.977Z,102686.33
2018-11-14T05:21:37.431Z,102693.55
2018-11-14T05:24:42.914Z,102689.25
2018-11-14T05:27:48.808Z,102699.56
2018-11-14T05:30:54.186Z,102712.53
2018-11-14T05:33:59.689Z,102714.32
2018-11-14T05:37:05.133Z,102713.36
2018-11-14T05:40:13.935Z,102711.59
2018-11-14T05:43:19.601Z,102703.43
2018-11-14T05:46:24.984Z,102709.00
2018-11-14T05:49:30.419Z,102714.22
2018-11-14T05:52:35.842Z,102704.72
2018-11-14T05:55:41.290Z,102710.80
2018-11-14T05:58:46.650Z,102704.81
2018-11-14T06:01:52.130Z,102706.05
2018-11-14T06:04:57.592Z,102710.80
2018-11-14T06:08:03.011Z,102706.41
2018-11-14T06:11:08.426Z,102717.25
2018-11-14T06:14:13.926Z,102722.44
2018-11-14T06:17:19.305Z,102722.02
2018-11-14T06:20:24.763Z,102731.92
2018-11-14T06:23:30.739Z,102740.58
2018-11-14T06:26:36.277Z,102731.03
2018-11-14T06:29:41.741Z,102740.94
2018-11-14T06:32:47.482Z,102746.07
2018-11-14T06:35:52.858Z,102744.39
2018-11-14T06:38:58.329Z,102743.51
2018-11-14T06:42:03.800Z,102746.48
2018-11-14T06:45:13.162Z,102741.27
2018-11-14T06:48:18.530Z,102755.63
2018-11-14T06:51:23.954Z,102755.15
2018-11-14T06:54:29.385Z,102755.98
2018-11-14T06:57:34.849Z,102756.80
2018-11-14T07:00:40.217Z,102755.98
2018-11-14T07:03:45.702Z,102752.12
2018-11-14T07:06:51.081Z,102755.53
2018-11-14T07:09:56.490Z,102764.17
2018-11-14T07:13:05.788Z,102762.02
2018-11-14T07:16:11.206Z,102762.48
2018-11-14T07:19:16.593Z,102765.06
2018-11-14T07:22:21.982Z,102768.50
2018-11-14T07:25:27.849Z,102767.59
2018-11-14T07:28:33.320Z,102770.09
2018-11-14T07:31:38.759Z,102775.25
2018-11-14T07:34:44.214Z,102781.23
2018-11-14T07:38:53.281Z,102779.97
2018-11-14T07:41:58.721Z,102787.75
2018-11-14T07:45:04.204Z,102783.80
2018-11-14T07:48:11.903Z,102793.77
2018-11-14T07:51:17.509Z,102795.13
2018-11-14T07:54:23.100Z,102796.80
2018-11-14T07:57:28.694Z,102804.15
2018-11-14T08:00:34.159Z,102797.66
2018-11-14T08:03:39.656Z,102796.74
2018-11-14T08:06:45.104Z,102800.26
2018-11-14T08:09:51.081Z,102797.66
2018-11-14T08:12:56.771Z,102799.78
2018-11-14T08:16:02.899Z,102801.90
2018-11-14T08:19:08.461Z,102815.73
2018-11-14T08:22:14.043Z,102817.86
2018-11-14T08:25:19.783Z,102822.19
2018-11-14T08:28:25.746Z,102824.31
2018-11-14T08:31:31.211Z,102828.61
2018-11-14T08:34:36.675Z,102837.67
2018-11-14T08:37:42.365Z,102835.48
2018-11-14T08:40:48.255Z,102838.05
2018-11-14T08:43:53.869Z,102836.67
2018-11-14T08:46:59.371Z,102827.52
2018-11-14T08:50:06.431Z,102823.61
2018-11-14T08:53:13.806Z,102830.41
2018-11-14T08:56:19.289Z,102839.02
2018-11-14T08:59:24.811Z,102842.12
2018-11-14T09:02:30.249Z,102841.20
2018-11-14T09:05:35.719Z,102846.40
2018-11-14T09:08:41.362Z,102853.41
2018-11-14T09:11:47.112Z,102859.80
2018-11-14T09:14:52.773Z,102868.48
2018-11-14T09:17:58.465Z,102867.19
2018-11-14T09:21:04.047Z,102866.25
2018-11-14T09:24:09.523Z,102869.38
2018-11-14T09:27:15.135Z,102866.81
2018-11-14T09:30:22.778Z,102869.38
2018-11-14T09:33:28.268Z,102870.59
2018-11-14T09:36:33.747Z,102877.50
2018-11-14T09:39:39.222Z,102877.02
2018-11-14T09:42:44.730Z,102873.52
2018-11-14T09:45:50.123Z,102871.29
2018-11-14T09:48:55.552Z,102879.91
2018-11-14T09:52:00.962Z,102879.42
2018-11-14T09:55:08.543Z,102869.26
2018-11-14T09:58:13.999Z,102864.02
2018-11-14T10:01:19.398Z,102856.55
2018-11-14T10:04:24.859Z,102866.05
2018-11-14T10:07:30.333Z,102867.17
2018-11-14T10:10:35.746Z,102872.86
2018-11-14T10:13:41.202Z,102867.48
2018-11-14T10:16:46.649Z,102867.66
2018-11-14T10:19:52.047Z,102872.91
2018-11-14T10:22:57.518Z,102876.14
2018-11-14T10:26:02.970Z,102865.23
2018-11-14T10:29:08.543Z,102865.05
2018-11-14T10:32:14.045Z,102857.55
2018-11-14T10:35:19.604Z,102853.53
2018-11-14T10:38:25.071Z,102853.58
2018-11-14T10:41:30.466Z,102851.22
2018-11-14T10:44:35.935Z,102843.02
2018-11-14T10:47:41.443Z,102838.44
2018-11-14T10:50:46.948Z,102831.02
2018-11-14T10:53:52.589Z,102832.80
2018-11-14T10:56:58.411Z,102830.11
2018-11-14T11:00:04.164Z,102825.20
2018-11-14T11:03:14.719Z,102831.24
2018-11-14T11:06:34.031Z,102833.43
2018-11-14T11:09:44.499Z,102829.02
2018-11-14T11:14:55.839Z,102837.28
2018-11-14T11:18:03.037Z,102834.09
2018-11-14T11:21:08.408Z,102832.58
2018-11-14T11:24:14.661Z,102830.72
2018-11-14T11:27:20.058Z,102830.11
2018-11-14T11:30:25.442Z,102823.22
2018-11-14T11:33:30.843Z,102827.36
2018-11-14T11:36:36.278Z,102838.38
2018-11-14T11:39:41.650Z,102836.52
2018-11-14T11:42:47.051Z,102838.26
2018-11-14T11:45:52.430Z,102830.75
2018-11-14T11:48:57.838Z,102830.57
2018-11-14T11:52:03.546Z,102828.81
2018-11-14T11:55:08.995Z,102823.67
2018-11-14T11:58:14.363Z,102818.70
2018-11-14T12:01:19.746Z,102820.44
2018-11-14T12:04:25.154Z,102822.92
2018-11-14T12:07:30.498Z,102820.96
2018-11-14T12:10:35.924Z,102813.20
2018-11-14T12:13:41.585Z,102813.14
2018-11-14T12:16:47.142Z,102812.52
2018-11-14T12:19:52.527Z,102811.20
2018-11-14T12:22:58.140Z,102809.83
2018-11-14T12:26:03.525Z,102815.17
2018-11-14T12:29:08.882Z,102814.06
2018-11-14T12:32:14.278Z,102813.73
2018-11-14T12:35:19.739Z,102811.21
2018-11-14T12:38:25.309Z,102808.86
2018-11-14T12:41:30.713Z,102805.61
2018-11-14T12:44:36.077Z,102799.48
2018-11-14T12:47:41.591Z,102801.90
2018-11-14T12:50:46.973Z,102803.44
2018-11-14T12:53:52.341Z,102795.66
2018-11-14T12:56:57.726Z,102797.93
2018-11-14T13:00:03.269Z,102798.83
2018-11-14T13:03:08.829Z,102792.26
2018-11-14T13:06:14.214Z,102801.16
2018-11-14T13:09:19.573Z,102790.36
2018-11-14T13:12:24.965Z,102785.42
2018-11-14T13:15:30.333Z,102782.30
2018-11-14T13:18:35.722Z,102785.41
2018-11-14T13:21:44.604Z,102783.31
2018-11-14T13:24:49.962Z,102786.85
2018-11-14T13:27:55.742Z,102791.21
2018-11-14T13:31:01.302Z,102808.92
2018-11-14T13:34:07.098Z,102804.02
2018-11-14T13:37:12.520Z,102795.77
2018-11-14T13:40:17.930Z,102794.72
2018-11-14T13:43:24.229Z,102792.83
2018-11-14T13:46:29.616Z,102787.05
2018-11-14T13:49:35.186Z,102788.59
2018-11-14T13:52:40.775Z,102787.30
2018-11-14T13:55:46.141Z,102781.72
2018-11-14T13:58:51.506Z,102780.28
2018-11-14T14:01:56.926Z,102776.18
2018-11-14T14:05:02.435Z,102779.38
2018-11-14T14:08:07.936Z,102789.28
2018-11-14T14:11:13.470Z,102786.85
2018-11-14T14:14:19.488Z,102798.91
2018-11-14T14:17:24.942Z,102798.69
2018-11-14T14:20:32.317Z,102797.59
2018-11-14T14:23:42.626Z,102796.82
2018-11-14T14:26:50.192Z,102796.16
2018-11-14T14:29:55.597Z,102785.66
2018-11-14T14:33:01.130Z,102784.17
2018-11-14T14:36:07.442Z,102795.38
2018-11-14T14:39:13.566Z,102789.97
2018-11-14T14:42:18.963Z,102777.38
2018-11-14T14:45:25.950Z,102774.98
2018-11-14T14:48:31.434Z,102782.65
2018-11-14T14:51:37.002Z,102780.39
2018-11-14T14:54:42.427Z,102773.28
2018-11-14T14:57:48.145Z,102771.69
2018-11-14T15:00:53.995Z,102769.19
2018-11-14T15:03:59.499Z,102779.94
2018-11-14T15:07:05.934Z,102774.20
2018-11-14T15:10:15.210Z,102769.58
2018-11-14T15:13:20.585Z,102768.28
2018-11-14T15:16:25.982Z,102765.23
2018-11-14T15:19:31.346Z,102771.73
2018-11-14T15:22:37.139Z,102777.81
2018-11-14T15:25:42.678Z,102780.80
2018-11-14T15:28:48.064Z,102781.20
2018-11-14T15:31:53.651Z,102760.42
2018-11-14T15:34:59.428Z,102763.76
2018-11-14T15:38:05.448Z,102762.98
2018-11-14T15:41:10.846Z,102763.09
2018-11-14T15:44:16.604Z,102756.38
2018-11-14T15:47:21.959Z,102760.93
2018-11-14T15:50:28.949Z,102760.95
2018-11-14T15:53:34.666Z,102759.05
2018-11-14T15:56:40.044Z,102760.17
2018-11-14T15:59:45.410Z,102743.05
2018-11-14T16:02:50.842Z,102758.67
2018-11-14T16:05:56.454Z,102757.04
2018-11-14T16:09:01.841Z,102758.41
2018-11-14T16:12:07.606Z,102767.18
2018-11-14T16:15:14.151Z,102764.98
2018-11-14T16:18:19.514Z,102758.15
2018-11-14T16:21:24.918Z,102763.95
2018-11-14T16:24:30.338Z,102765.77
2018-11-14T16:27:35.918Z,102760.42
2018-11-14T16:30:41.284Z,102761.66
2018-11-14T16:33:46.678Z,102762.44
2018-11-14T16:36:52.054Z,102763.53
2018-11-14T16:39:57.445Z,102766.28
2018-11-14T16:43:04.324Z,102761.87
2018-11-14T16:46:09.738Z,102761.66
2018-11-14T16:49:15.314Z,102762.11
2018-11-14T16:52:20.709Z,102759.00
2018-11-14T16:55:26.204Z,102760.62
2018-11-14T16:58:31.797Z,102764.46
2018-11-14T17:01:37.222Z,102762.89
2018-11-14T17:04:42.657Z,102768.88
2018-11-14T17:07:48.162Z,102756.91
2018-11-14T17:10:53.598Z,102755.02
2018-11-14T17:13:58.994Z,102756.66
2018-11-14T17:17:04.438Z,102765.96
2018-11-14T17:20:10.816Z,102772.45
2018-11-14T17:23:16.258Z,102766.34
2018-11-14T17:26:21.736Z,102756.98
2018-11-14T17:29:27.253Z,102756.14
2018-11-14T17:32:32.650Z,102754.36
2018-11-14T17:35:38.046Z,102752.09
2018-11-14T17:38:43.447Z,102760.93
2018-11-14T17:41:48.946Z,102758.16
2018-11-14T17:44:54.441Z,102760.23
2018-11-14T17:48:00.147Z,102753.08
2018-11-14T17:51:05.771Z,102747.85
2018-11-14T17:54:11.191Z,102757.69
2018-11-14T17:57:16.602Z,102760.34
2018-11-14T18:00:23.417Z,102768.10
2018-11-14T18:03:28.863Z,102766.48
2018-11-14T18:06:34.243Z,102772.41
2018-11-14T18:09:39.831Z,102782.77
2018-11-14T18:12:46.477Z,102769.47
2018-11-14T18:15:51.842Z,102770.19
2018-11-14T18:18:57.201Z,102765.37
2018-11-14T18:22:02.627Z,102770.96
2018-11-14T18:25:08.399Z,102772.94
2018-11-14T18:28:13.774Z,102775.67
2018-11-14T18:31:19.245Z,102772.16
2018-11-14T18:34:24.614Z,102770.79
2018-11-14T18:37:30.051Z,102772.01
2018-11-14T18:40:35.873Z,102774.28
2018-11-14T18:43:41.272Z,102773.31
2018-11-14T18:46:46.670Z,102781.00
2018-11-14T18:49:52.102Z,102775.00
2018-11-14T18:52:57.542Z,102768.42
2018-11-14T18:56:02.895Z,102769.41
2018-11-14T18:59:08.390Z,102768.97
2018-11-14T19:02:13.807Z,102779.97
2018-11-14T19:05:19.734Z,102778.27
2018-11-14T19:08:25.144Z,102770.59
2018-11-14T19:11:30.545Z,102774.09
2018-11-14T19:14:35.945Z,102771.22
2018-11-14T19:17:41.841Z,102769.19
2018-11-14T19:20:47.226Z,102771.58
2018-11-14T19:23:52.658Z,102780.40
2018-11-14T19:26:58.069Z,102770.05
2018-11-14T19:30:04.006Z,102770.09
2018-11-14T19:33:09.520Z,102777.11
2018-11-14T19:36:15.220Z,102778.86
2018-11-14T19:39:20.845Z,102785.94
2018-11-14T19:42:28.199Z,102780.72
2018-11-14T19:45:38.391Z,102774.22
2018-11-14T19:48:47.909Z,102778.52
2018-11-14T19:51:56.574Z,102786.73
2018-11-14T19:55:02.239Z,102783.72
2018-11-14T19:58:09.421Z,102786.71
2018-11-14T20:01:27.167Z,102788.83
2018-11-14T20:04:32.889Z,102790.19
2018-11-14T20:07:39.062Z,102786.17
2018-11-14T20:10:44.564Z,102785.77
2018-11-14T20:13:53.335Z,102792.18
2018-11-14T20:17:00.937Z,102780.58
2018-11-14T20:20:09.316Z,102783.13
2018-11-14T20:23:15.003Z,102781.77
2018-11-14T20:26:20.813Z,102784.37
2018-11-14T20:29:26.693Z,102788.67
2018-11-14T20:32:32.090Z,102790.47
2018-11-14T20:35:37.906Z,102776.56
2018-11-14T20:38:43.463Z,102774.92
2018-11-14T20:41:49.085Z,102785.33
2018-11-14T20:44:54.815Z,102786.33
2018-11-14T20:48:00.498Z,102787.62
2018-11-14T20:51:07.250Z,102790.37
2018-11-14T20:54:12.842Z,102787.81
2018-11-14T20:57:20.346Z,102788.34
2018-11-14T21:00:29.909Z,102794.64
2018-11-14T21:03:35.823Z,102792.00
2018-11-14T21:06:41.351Z,102799.67
2018-11-14T21:09:46.982Z,102802.23
2018-11-14T21:12:53.444Z,102804.02
2018-11-14T21:15:58.938Z,102805.76
2018-11-14T21:19:04.629Z,102804.47
2018-11-14T21:22:13.889Z,102804.86
2018-11-14T21:25:20.422Z,102800.56
2018-11-14T21:28:26.181Z,102801.05
2018-11-14T21:31:33.463Z,102801.55
2018-11-14T21:34:52.258Z,102799.76
2018-11-14T21:38:00.139Z,102794.75
2018-11-14T21:41:05.651Z,102792.20
2018-11-14T21:44:11.423Z,102794.60
2018-11-14T21:47:17.062Z,102793.30
2018-11-14T21:50:23.721Z,102795.05
2018-11-14T21:53:29.394Z,102794.83
2018-11-14T21:56:34.953Z,102787.11
2018-11-14T21:59:40.470Z,102785.73
2018-11-14T22:02:48.706Z,102784.41
2018-11-14T22:05:54.404Z,102783.11
2018-11-14T22:08:59.927Z,102776.72
2018-11-14T22:12:05.535Z,102766.30
2018-11-14T22:15:11.959Z,102761.89
2018-11-14T22:18:17.573Z,102763.62
2018-11-14T22:21:23.047Z,102767.97
2018-11-14T22:24:28.850Z,102766.75
2018-11-14T22:27:34.997Z,102779.42
2018-11-14T22:30:40.703Z,102782.40
2018-11-14T22:33:46.268Z,102778.50
2018-11-14T22:36:52.300Z,102771.95
2018-11-14T22:39:58.019Z,102782.84
2018-11-14T22:43:06.791Z,102779.32
2018-11-14T22:46:12.463Z,102776.25
2018-11-14T22:49:18.121Z,102777.95
2018-11-14T22:52:23.768Z,102774.12
2018-11-14T22:55:29.618Z,102778.87
2018-11-14T22:58:36.191Z,102782.73
2018-11-14T23:01:42.092Z,102770.61
2018-11-14T23:04:47.886Z,102779.17
2018-11-14T23:07:54.409Z,102770.56
2018-11-14T23:11:00.108Z,102772.34
2018-11-14T23:14:06.326Z,102770.97
2018-11-14T23:17:11.764Z,102762.30
2018-11-14T23:20:17.793Z,102767.16
2018-11-14T23:23:23.538Z,102767.60
2018-11-14T23:26:29.846Z,102766.27
2018-11-14T23:29:35.900Z,102774.09
2018-11-14T23:32:42.957Z,102775.39
2018-11-14T23:35:48.628Z,102781.51
2018-11-14T23:38:54.466Z,102782.12
2018-11-14T23:42:00.084Z,102784.23
2018-11-14T23:45:07.583Z,102779.36
2018-11-14T23:48:13.055Z,102774.16
2018-11-14T23:51:18.567Z,102767.41
2018-11-14T23:54:24.378Z,102774.30
2018-11-14T23:57:29.900Z,102773.48
